sensor_id;sensor_type;location;lat;lon;timestamp;pressure;altitude;pressure_sealevel;temperature;humidity
51759;BME280;66684;47.568;18.734;2024-01-16T00:01:44;98315.63;;;0.04;100.00
51759;BME280;66684;47.568;18.734;2024-01-16T00:04:10;98307.72;;;-0.01;100.00
51759;BME280;66684;47.568;18.734;2024-01-16T00:06:40;98316.41;;;0.03;100.00
51759;BME280;66684;47.568;18.734;2024-01-16T00:09:07;98327.03;;;0.11;100.00
51759;BME280;66684;47.568;18.734;2024-01-16T00:11:33;98322.16;;;0.14;100.00
51759;BME280;66684;47.568;18.734;2024-01-16T00:13:59;98325.13;;;-0.07;100.00
51759;BME280;66684;47.568;18.734;2024-01-16T00:16:25;98344.84;;;-0.03;100.00
51759;BME280;66684;47.568;18.734;2024-01-16T00:18:50;98344.00;;;0.12;100.00
51759;BME280;66684;47.568;18.734;2024-01-16T00:21:16;98338.19;;;-0.01;100.00
51759;BME280;66684;47.568;18.734;2024-01-16T00:23:42;98345.22;;;0.04;100.00
51759;BME280;66684;47.568;18.734;2024-01-16T00:26:08;98348.72;;;0.06;100.00
51759;BME280;66684;47.568;18.734;2024-01-16T00:28:35;98349.50;;;0.05;100.00
51759;BME280;66684;47.568;18.734;2024-01-16T00:31:01;98362.44;;;0.22;100.00
51759;BME280;66684;47.568;18.734;2024-01-16T00:33:27;98362.28;;;0.19;100.00
51759;BME280;66684;47.568;18.734;2024-01-16T00:35:53;98369.78;;;0.18;100.00
51759;BME280;66684;47.568;18.734;2024-01-16T00:38:19;98376.31;;;0.28;100.00
51759;BME280;66684;47.568;18.734;2024-01-16T00:40:45;98370.28;;;0.25;100.00
51759;BME280;66684;47.568;18.734;2024-01-16T00:43:11;98371.03;;;0.24;100.00
51759;BME280;66684;47.568;18.734;2024-01-16T00:45:38;98380.69;;;0.30;100.00
51759;BME280;66684;47.568;18.734;2024-01-16T00:48:04;98381.03;;;0.21;100.00
51759;BME280;66684;47.568;18.734;2024-01-16T00:50:31;98392.75;;;0.19;100.00
51759;BME280;66684;47.568;18.734;2024-01-16T00:52:57;98396.25;;;0.21;100.00
51759;BME280;66684;47.568;18.734;2024-01-16T00:55:23;98403.47;;;0.29;100.00
51759;BME280;66684;47.568;18.734;2024-01-16T00:57:49;98408.53;;;0.29;100.00
51759;BME280;66684;47.568;18.734;2024-01-16T01:00:15;98416.47;;;0.33;100.00
51759;BME280;66684;47.568;18.734;2024-01-16T01:02:41;98422.41;;;0.34;100.00
51759;BME280;66684;47.568;18.734;2024-01-16T01:05:07;98424.88;;;0.32;100.00
51759;BME280;66684;47.568;18.734;2024-01-16T01:07:33;98428.53;;;0.37;100.00
51759;BME280;66684;47.568;18.734;2024-01-16T01:09:59;98428.16;;;0.31;100.00
51759;BME280;66684;47.568;18.734;2024-01-16T01:12:25;98440.13;;;0.32;100.00
51759;BME280;66684;47.568;18.734;2024-01-16T01:14:51;98444.66;;;0.38;99.92
51759;BME280;66684;47.568;18.734;2024-01-16T01:17:17;98443.41;;;0.44;98.90
51759;BME280;66684;47.568;18.734;2024-01-16T01:19:42;98433.44;;;0.34;99.37
51759;BME280;66684;47.568;18.734;2024-01-16T01:22:08;98440.56;;;0.40;99.34
51759;BME280;66684;47.568;18.734;2024-01-16T01:24:34;98449.06;;;0.40;98.83
51759;BME280;66684;47.568;18.734;2024-01-16T01:27:00;98445.75;;;0.41;98.92
51759;BME280;66684;47.568;18.734;2024-01-16T01:29:26;98442.78;;;0.48;98.14
51759;BME280;66684;47.568;18.734;2024-01-16T01:31:52;98451.53;;;0.39;99.04
51759;BME280;66684;47.568;18.734;2024-01-16T01:34:18;98446.75;;;0.30;99.27
51759;BME280;66684;47.568;18.734;2024-01-16T01:36:43;98451.31;;;0.36;99.01
51759;BME280;66684;47.568;18.734;2024-01-16T01:39:09;98450.03;;;0.42;98.53
51759;BME280;66684;47.568;18.734;2024-01-16T01:41:36;98451.66;;;0.27;99.04
51759;BME280;66684;47.568;18.734;2024-01-16T01:44:02;98452.19;;;0.36;98.81
51759;BME280;66684;47.568;18.734;2024-01-16T01:46:29;98457.53;;;0.26;99.28
51759;BME280;66684;47.568;18.734;2024-01-16T01:48:56;98466.00;;;0.26;99.26
51759;BME280;66684;47.568;18.734;2024-01-16T01:51:22;98466.69;;;0.24;99.43
51759;BME280;66684;47.568;18.734;2024-01-16T01:53:49;98466.50;;;0.21;99.57
51759;BME280;66684;47.568;18.734;2024-01-16T01:56:18;98464.06;;;0.22;99.02
51759;BME280;66684;47.568;18.734;2024-01-16T01:58:46;98466.69;;;0.24;99.09
51759;BME280;66684;47.568;18.734;2024-01-16T02:01:13;98468.84;;;0.18;99.27
51759;BME280;66684;47.568;18.734;2024-01-16T02:03:44;98466.12;;;0.15;99.45
51759;BME280;66684;47.568;18.734;2024-01-16T02:06:13;98468.56;;;0.26;98.96
51759;BME280;66684;47.568;18.734;2024-01-16T02:08:42;98472.41;;;0.07;100.00
51759;BME280;66684;47.568;18.734;2024-01-16T02:11:09;98479.63;;;0.01;100.00
51759;BME280;66684;47.568;18.734;2024-01-16T02:13:35;98481.16;;;-0.15;100.00
51759;BME280;66684;47.568;18.734;2024-01-16T02:16:02;98486.25;;;-0.15;100.00
51759;BME280;66684;47.568;18.734;2024-01-16T02:18:29;98488.31;;;-0.22;100.00
51759;BME280;66684;47.568;18.734;2024-01-16T02:21:00;98493.69;;;-0.18;100.00
51759;BME280;66684;47.568;18.734;2024-01-16T02:23:31;98488.22;;;0.03;100.00
51759;BME280;66684;47.568;18.734;2024-01-16T02:25:57;98492.81;;;-0.05;100.00
51759;BME280;66684;47.568;18.734;2024-01-16T02:28:23;98487.50;;;-0.08;100.00
51759;BME280;66684;47.568;18.734;2024-01-16T02:30:49;98493.28;;;0.16;98.61
51759;BME280;66684;47.568;18.734;2024-01-16T02:33:15;98503.75;;;0.07;98.65
51759;BME280;66684;47.568;18.734;2024-01-16T02:35:41;98504.63;;;-0.06;99.73
51759;BME280;66684;47.568;18.734;2024-01-16T02:38:07;98505.19;;;0.04;98.72
51759;BME280;66684;47.568;18.734;2024-01-16T02:40:32;98503.34;;;0.14;96.90
51759;BME280;66684;47.568;18.734;2024-01-16T02:42:58;98508.69;;;0.19;96.79
51759;BME280;66684;47.568;18.734;2024-01-16T02:45:24;98511.84;;;0.15;95.92
51759;BME280;66684;47.568;18.734;2024-01-16T02:47:50;98514.97;;;0.11;96.72
51759;BME280;66684;47.568;18.734;2024-01-16T02:50:16;98516.53;;;0.09;96.24
51759;BME280;66684;47.568;18.734;2024-01-16T02:52:42;98515.75;;;0.10;95.64
51759;BME280;66684;47.568;18.734;2024-01-16T02:55:08;98513.03;;;0.07;95.94
51759;BME280;66684;47.568;18.734;2024-01-16T02:57:34;98522.78;;;0.01;96.36
51759;BME280;66684;47.568;18.734;2024-01-16T03:00:00;98522.78;;;0.01;96.25
51759;BME280;66684;47.568;18.734;2024-01-16T03:02:26;98522.00;;;0.02;96.40
51759;BME280;66684;47.568;18.734;2024-01-16T03:04:52;98523.28;;;0.08;95.88
51759;BME280;66684;47.568;18.734;2024-01-16T03:07:18;98519.66;;;0.05;95.37
51759;BME280;66684;47.568;18.734;2024-01-16T03:09:43;98525.31;;;0.14;94.65
51759;BME280;66684;47.568;18.734;2024-01-16T03:12:09;98542.31;;;0.15;94.59
51759;BME280;66684;47.568;18.734;2024-01-16T03:14:35;98537.63;;;0.08;94.68
51759;BME280;66684;47.568;18.734;2024-01-16T03:17:03;98537.41;;;0.05;94.58
51759;BME280;66684;47.568;18.734;2024-01-16T03:19:29;98540.06;;;0.06;94.14
51759;BME280;66684;47.568;18.734;2024-01-16T03:21:55;98544.84;;;0.02;94.76
51759;BME280;66684;47.568;18.734;2024-01-16T03:24:21;98550.72;;;0.14;94.23
51759;BME280;66684;47.568;18.734;2024-01-16T03:26:47;98553.63;;;-0.07;94.43
51759;BME280;66684;47.568;18.734;2024-01-16T03:29:13;98558.13;;;-0.03;94.67
51759;BME280;66684;47.568;18.734;2024-01-16T03:31:39;98560.66;;;-0.03;94.47
51759;BME280;66684;47.568;18.734;2024-01-16T03:34:05;98569.16;;;-0.02;93.83
51759;BME280;66684;47.568;18.734;2024-01-16T03:36:31;98573.66;;;0.02;93.76
51759;BME280;66684;47.568;18.734;2024-01-16T03:38:57;98567.50;;;0.12;92.73
51759;BME280;66684;47.568;18.734;2024-01-16T03:41:23;98576.88;;;-0.01;93.41
51759;BME280;66684;47.568;18.734;2024-01-16T03:43:48;98580.19;;;0.12;93.01
51759;BME280;66684;47.568;18.734;2024-01-16T03:46:14;98581.06;;;-0.01;92.89
51759;BME280;66684;47.568;18.734;2024-01-16T03:48:40;98571.69;;;-0.02;92.93
51759;BME280;66684;47.568;18.734;2024-01-16T03:51:06;98592.88;;;-0.15;93.88
51759;BME280;66684;47.568;18.734;2024-01-16T03:53:34;98587.53;;;-0.06;93.66
51759;BME280;66684;47.568;18.734;2024-01-16T03:56:00;98590.81;;;-0.07;93.37
51759;BME280;66684;47.568;18.734;2024-01-16T03:58:26;98594.22;;;-0.20;94.62
51759;BME280;66684;47.568;18.734;2024-01-16T04:00:52;98594.03;;;-0.23;93.84
51759;BME280;66684;47.568;18.734;2024-01-16T04:03:19;98613.87;;;-0.17;94.41
51759;BME280;66684;47.568;18.734;2024-01-16T04:05:44;98611.06;;;-0.09;92.89
51759;BME280;66684;47.568;18.734;2024-01-16T04:08:10;98611.03;;;-0.22;93.29
51759;BME280;66684;47.568;18.734;2024-01-16T04:10:38;98606.25;;;-0.17;93.20
51759;BME280;66684;47.568;18.734;2024-01-16T04:13:04;98600.59;;;-0.13;93.47
51759;BME280;66684;47.568;18.734;2024-01-16T04:15:29;98614.75;;;-0.17;93.62
51759;BME280;66684;47.568;18.734;2024-01-16T04:17:55;98613.41;;;-0.12;92.80
51759;BME280;66684;47.568;18.734;2024-01-16T04:20:21;98610.88;;;-0.12;92.44
51759;BME280;66684;47.568;18.734;2024-01-16T04:22:47;98614.16;;;-0.13;92.95
51759;BME280;66684;47.568;18.734;2024-01-16T04:25:13;98622.37;;;-0.17;92.47
51759;BME280;66684;47.568;18.734;2024-01-16T04:27:40;98616.31;;;-0.19;93.22
51759;BME280;66684;47.568;18.734;2024-01-16T04:30:07;98627.44;;;-0.17;93.05
51759;BME280;66684;47.568;18.734;2024-01-16T04:32:33;98625.31;;;-0.11;93.08
51759;BME280;66684;47.568;18.734;2024-01-16T04:35:00;98639.38;;;-0.03;91.58
51759;BME280;66684;47.568;18.734;2024-01-16T04:37:25;98637.00;;;-0.13;92.54
51759;BME280;66684;47.568;18.734;2024-01-16T04:39:51;98642.28;;;-0.10;91.72
51759;BME280;66684;47.568;18.734;2024-01-16T04:42:17;98638.97;;;-0.09;91.41
51759;BME280;66684;47.568;18.734;2024-01-16T04:44:43;98642.88;;;-0.14;91.36
51759;BME280;66684;47.568;18.734;2024-01-16T04:47:09;98638.97;;;-0.09;90.34
51759;BME280;66684;47.568;18.734;2024-01-16T04:49:36;98656.19;;;-0.05;89.96
51759;BME280;66684;47.568;18.734;2024-01-16T04:52:02;98652.66;;;-0.07;90.19
51759;BME280;66684;47.568;18.734;2024-01-16T04:54:28;98661.72;;;-0.10;90.23
51759;BME280;66684;47.568;18.734;2024-01-16T04:56:54;98657.84;;;-0.05;90.28
51759;BME280;66684;47.568;18.734;2024-01-16T04:59:20;98669.91;;;-0.14;90.35
51759;BME280;66684;47.568;18.734;2024-01-16T05:01:46;98663.91;;;-0.03;89.13
51759;BME280;66684;47.568;18.734;2024-01-16T05:04:12;98665.66;;;-0.02;89.35
51759;BME280;66684;47.568;18.734;2024-01-16T05:06:38;98667.31;;;-0.03;88.58
51759;BME280;66684;47.568;18.734;2024-01-16T05:09:04;98674.53;;;-0.09;88.87
51759;BME280;66684;47.568;18.734;2024-01-16T05:11:30;98677.56;;;-0.01;87.85
51759;BME280;66684;47.568;18.734;2024-01-16T05:13:56;98682.94;;;-0.10;88.48
51759;BME280;66684;47.568;18.734;2024-01-16T05:16:25;98686.84;;;-0.02;88.70
51759;BME280;66684;47.568;18.734;2024-01-16T05:18:51;98692.16;;;0.02;87.53
51759;BME280;66684;47.568;18.734;2024-01-16T05:21:17;98690.94;;;-0.04;88.27
51759;BME280;66684;47.568;18.734;2024-01-16T05:23:43;98696.44;;;-0.22;89.53
51759;BME280;66684;47.568;18.734;2024-01-16T05:26:09;98706.88;;;-0.06;87.30
51759;BME280;66684;47.568;18.734;2024-01-16T05:28:35;98715.38;;;-0.06;87.65
51759;BME280;66684;47.568;18.734;2024-01-16T05:31:01;98710.06;;;-0.09;87.43
51759;BME280;66684;47.568;18.734;2024-01-16T05:33:27;98712.09;;;-0.16;87.76
51759;BME280;66684;47.568;18.734;2024-01-16T05:35:53;98730.38;;;-0.09;87.35
51759;BME280;66684;47.568;18.734;2024-01-16T05:38:18;98715.38;;;-0.06;86.45
51759;BME280;66684;47.568;18.734;2024-01-16T05:40:44;98718.94;;;-0.15;86.65
51759;BME280;66684;47.568;18.734;2024-01-16T05:43:10;98728.56;;;-0.23;87.05
51759;BME280;66684;47.568;18.734;2024-01-16T05:45:36;98723.59;;;-0.21;86.73
51759;BME280;66684;47.568;18.734;2024-01-16T05:48:02;98728.03;;;-0.19;87.36
51759;BME280;66684;47.568;18.734;2024-01-16T05:50:28;98736.37;;;-0.20;86.51
51759;BME280;66684;47.568;18.734;2024-01-16T05:52:55;98741.91;;;-0.25;87.01
51759;BME280;66684;47.568;18.734;2024-01-16T05:55:21;98742.81;;;-0.25;86.38
51759;BME280;66684;47.568;18.734;2024-01-16T05:57:47;98741.41;;;-0.33;86.71
51759;BME280;66684;47.568;18.734;2024-01-16T06:00:13;98748.22;;;-0.32;87.25
51759;BME280;66684;47.568;18.734;2024-01-16T06:02:39;98748.16;;;-0.45;87.12
51759;BME280;66684;47.568;18.734;2024-01-16T06:05:06;98749.50;;;-0.50;87.49
51759;BME280;66684;47.568;18.734;2024-01-16T06:07:32;98757.00;;;-0.52;87.82
51759;BME280;66684;47.568;18.734;2024-01-16T06:09:58;98765.03;;;-0.46;87.36
51759;BME280;66684;47.568;18.734;2024-01-16T06:12:24;98764.06;;;-0.48;87.65
51759;BME280;66684;47.568;18.734;2024-01-16T06:14:50;98762.84;;;-0.53;87.48
51759;BME280;66684;47.568;18.734;2024-01-16T06:17:16;98760.78;;;-0.59;87.29
51759;BME280;66684;47.568;18.734;2024-01-16T06:19:42;98753.06;;;-0.72;87.48
51759;BME280;66684;47.568;18.734;2024-01-16T06:22:07;98785.50;;;-0.68;87.92
51759;BME280;66684;47.568;18.734;2024-01-16T06:24:34;98776.00;;;-0.70;87.88
51759;BME280;66684;47.568;18.734;2024-01-16T06:27:05;98787.72;;;-0.72;88.02
51759;BME280;66684;47.568;18.734;2024-01-16T06:29:34;98790.16;;;-0.74;87.75
51759;BME280;66684;47.568;18.734;2024-01-16T06:32:00;98793.47;;;-0.75;88.45
51759;BME280;66684;47.568;18.734;2024-01-16T06:34:27;98793.66;;;-0.72;87.74
51759;BME280;66684;47.568;18.734;2024-01-16T06:36:53;98798.72;;;-0.72;87.47
51759;BME280;66684;47.568;18.734;2024-01-16T06:39:19;98795.22;;;-0.74;87.06
51759;BME280;66684;47.568;18.734;2024-01-16T06:41:45;98799.41;;;-0.63;86.14
51759;BME280;66684;47.568;18.734;2024-01-16T06:44:11;98806.34;;;-0.72;86.57
51759;BME280;66684;47.568;18.734;2024-01-16T06:46:37;98811.31;;;-0.62;86.09
51759;BME280;66684;47.568;18.734;2024-01-16T06:49:03;98807.44;;;-0.57;85.62
51759;BME280;66684;47.568;18.734;2024-01-16T06:51:29;98822.34;;;-0.49;85.59
51759;BME280;66684;47.568;18.734;2024-01-16T06:53:54;98820.84;;;-0.34;84.21
51759;BME280;66684;47.568;18.734;2024-01-16T06:56:20;98841.06;;;-0.36;84.50
51759;BME280;66684;47.568;18.734;2024-01-16T06:58:46;98839.84;;;-0.29;84.18
51759;BME280;66684;47.568;18.734;2024-01-16T07:01:12;98832.09;;;-0.19;83.06
51759;BME280;66684;47.568;18.734;2024-01-16T07:03:38;98844.91;;;-0.29;83.98
51759;BME280;66684;47.568;18.734;2024-01-16T07:06:04;98854.03;;;-0.19;84.01
51759;BME280;66684;47.568;18.734;2024-01-16T07:08:30;98860.13;;;-0.17;83.32
51759;BME280;66684;47.568;18.734;2024-01-16T07:10:56;98855.47;;;-0.11;82.41
51759;BME280;66684;47.568;18.734;2024-01-16T07:13:22;98856.19;;;-0.01;81.59
51759;BME280;66684;47.568;18.734;2024-01-16T07:15:48;98857.56;;;-0.06;81.81
51759;BME280;66684;47.568;18.734;2024-01-16T07:18:14;98862.41;;;-0.09;81.79
51759;BME280;66684;47.568;18.734;2024-01-16T07:20:40;98875.19;;;0.05;81.65
51759;BME280;66684;47.568;18.734;2024-01-16T07:23:06;98875.19;;;0.05;81.96
51759;BME280;66684;47.568;18.734;2024-01-16T07:25:32;98885.78;;;0.11;81.78
51759;BME280;66684;47.568;18.734;2024-01-16T07:27:58;98876.72;;;0.14;81.73
51759;BME280;66684;47.568;18.734;2024-01-16T07:30:24;98887.97;;;0.18;82.88
51759;BME280;66684;47.568;18.734;2024-01-16T07:32:50;98883.16;;;0.34;82.42
51759;BME280;66684;47.568;18.734;2024-01-16T07:35:16;98885.53;;;0.19;82.42
51759;BME280;66684;47.568;18.734;2024-01-16T07:37:43;98890.13;;;0.25;82.19
51759;BME280;66684;47.568;18.734;2024-01-16T07:40:09;98888.59;;;0.27;81.72
51759;BME280;66684;47.568;18.734;2024-01-16T07:42:35;98898.53;;;0.24;82.83
51759;BME280;66684;47.568;18.734;2024-01-16T07:45:02;98891.81;;;0.24;82.79
51759;BME280;66684;47.568;18.734;2024-01-16T07:47:30;98905.38;;;0.25;83.03
51759;BME280;66684;47.568;18.734;2024-01-16T07:49:57;98902.84;;;0.25;83.42
51759;BME280;66684;47.568;18.734;2024-01-16T07:52:23;98913.22;;;0.28;83.71
51759;BME280;66684;47.568;18.734;2024-01-16T07:54:49;98907.25;;;0.39;81.34
51759;BME280;66684;47.568;18.734;2024-01-16T07:57:18;98915.69;;;0.26;81.47
51759;BME280;66684;47.568;18.734;2024-01-16T07:59:43;98921.53;;;0.25;83.00
51759;BME280;66684;47.568;18.734;2024-01-16T08:02:09;98923.09;;;0.12;81.38
51759;BME280;66684;47.568;18.734;2024-01-16T08:04:35;98931.38;;;0.21;82.55
51759;BME280;66684;47.568;18.734;2024-01-16T08:07:02;98941.19;;;0.28;82.71
51759;BME280;66684;47.568;18.734;2024-01-16T08:09:27;98929.88;;;0.36;80.37
51759;BME280;66684;47.568;18.734;2024-01-16T08:11:53;98942.06;;;0.29;82.46
51759;BME280;66684;47.568;18.734;2024-01-16T08:14:19;98943.16;;;0.32;81.59
51759;BME280;66684;47.568;18.734;2024-01-16T08:16:45;98938.50;;;0.38;80.71
51759;BME280;66684;47.568;18.734;2024-01-16T08:19:11;98943.06;;;0.56;79.90
51759;BME280;66684;47.568;18.734;2024-01-16T08:21:37;98952.62;;;0.46;80.04
51759;BME280;66684;47.568;18.734;2024-01-16T08:24:03;98952.31;;;0.67;77.63
51759;BME280;66684;47.568;18.734;2024-01-16T08:26:29;98951.69;;;0.69;77.20
51759;BME280;66684;47.568;18.734;2024-01-16T08:28:55;98948.44;;;0.72;78.46
51759;BME280;66684;47.568;18.734;2024-01-16T08:31:21;98950.75;;;0.69;77.20
51759;BME280;66684;47.568;18.734;2024-01-16T08:33:47;98960.47;;;0.74;77.01
51759;BME280;66684;47.568;18.734;2024-01-16T08:36:14;98965.31;;;0.83;75.47
51759;BME280;66684;47.568;18.734;2024-01-16T08:38:41;98967.97;;;0.85;75.56
51759;BME280;66684;47.568;18.734;2024-01-16T08:41:06;98968.06;;;0.86;75.12
51759;BME280;66684;47.568;18.734;2024-01-16T08:43:35;98963.75;;;0.85;75.04
51759;BME280;66684;47.568;18.734;2024-01-16T08:46:01;98966.66;;;0.78;74.86
51759;BME280;66684;47.568;18.734;2024-01-16T08:48:27;98967.06;;;0.84;75.35
51759;BME280;66684;47.568;18.734;2024-01-16T08:50:53;98972.13;;;0.96;75.00
51759;BME280;66684;47.568;18.734;2024-01-16T08:53:22;98963.28;;;0.91;72.45
51759;BME280;66684;47.568;18.734;2024-01-16T08:55:49;98963.84;;;1.12;72.33
51759;BME280;66684;47.568;18.734;2024-01-16T08:58:17;98974.53;;;1.19;72.39
51759;BME280;66684;47.568;18.734;2024-01-16T09:00:43;98959.38;;;1.21;71.51
51759;BME280;66684;47.568;18.734;2024-01-16T09:03:09;98974.44;;;1.18;72.01
51759;BME280;66684;47.568;18.734;2024-01-16T09:05:35;98969.84;;;1.00;70.96
51759;BME280;66684;47.568;18.734;2024-01-16T09:08:04;98984.41;;;1.15;71.20
51759;BME280;66684;47.568;18.734;2024-01-16T09:10:30;98974.53;;;0.94;70.48
51759;BME280;66684;47.568;18.734;2024-01-16T09:12:56;98969.84;;;1.00;69.30
51759;BME280;66684;47.568;18.734;2024-01-16T09:15:22;98959.38;;;1.21;71.16
51759;BME280;66684;47.568;18.734;2024-01-16T09:17:48;98964.59;;;1.35;67.79
51759;BME280;66684;47.568;18.734;2024-01-16T09:20:14;98965.37;;;1.34;67.91
51759;BME280;66684;47.568;18.734;2024-01-16T09:22:39;98971.37;;;1.48;68.91
51759;BME280;66684;47.568;18.734;2024-01-16T09:25:06;98959.16;;;1.69;67.15
51759;BME280;66684;47.568;18.734;2024-01-16T09:27:32;98967.88;;;1.59;66.02
51759;BME280;66684;47.568;18.734;2024-01-16T09:29:58;98966.19;;;1.60;66.28
51759;BME280;66684;47.568;18.734;2024-01-16T09:32:24;98968.06;;;1.76;66.55
51759;BME280;66684;47.568;18.734;2024-01-16T09:34:49;98966.69;;;1.94;65.31
51759;BME280;66684;47.568;18.734;2024-01-16T09:37:15;98976.88;;;1.81;63.96
51759;BME280;66684;47.568;18.734;2024-01-16T09:39:41;98964.75;;;1.90;64.96
51759;BME280;66684;47.568;18.734;2024-01-16T09:42:08;98976.53;;;2.01;64.05
51759;BME280;66684;47.568;18.734;2024-01-16T09:44:34;98964.53;;;1.74;64.09
51759;BME280;66684;47.568;18.734;2024-01-16T09:47:01;98965.63;;;1.64;63.96
51759;BME280;66684;47.568;18.734;2024-01-16T09:49:29;98961.22;;;1.75;64.13
51759;BME280;66684;47.568;18.734;2024-01-16T09:51:55;98971.59;;;1.91;64.71
51759;BME280;66684;47.568;18.734;2024-01-16T09:54:23;98962.88;;;1.87;62.63
51759;BME280;66684;47.568;18.734;2024-01-16T09:56:51;98964.37;;;1.71;63.05
51759;BME280;66684;47.568;18.734;2024-01-16T09:59:20;98963.28;;;1.80;64.65
51759;BME280;66684;47.568;18.734;2024-01-16T10:01:48;98963.34;;;1.82;63.18
51759;BME280;66684;47.568;18.734;2024-01-16T10:04:15;98963.56;;;1.85;62.66
51759;BME280;66684;47.568;18.734;2024-01-16T10:06:45;98960.44;;;1.89;62.41
51759;BME280;66684;47.568;18.734;2024-01-16T10:09:12;98964.94;;;2.06;61.73
51759;BME280;66684;47.568;18.734;2024-01-16T10:11:38;98968.97;;;2.03;62.16
51759;BME280;66684;47.568;18.734;2024-01-16T10:14:05;98975.31;;;2.09;61.97
51759;BME280;66684;47.568;18.734;2024-01-16T10:17:00;98962.22;;;1.90;61.20
51759;BME280;66684;47.568;18.734;2024-01-16T10:19:29;98972.78;;;1.96;62.98
51759;BME280;66684;47.568;18.734;2024-01-16T10:22:03;98964.16;;;1.94;62.67
51759;BME280;66684;47.568;18.734;2024-01-16T10:24:29;98965.31;;;2.12;63.45
51759;BME280;66684;47.568;18.734;2024-01-16T10:26:59;98966.69;;;2.21;61.88
51759;BME280;66684;47.568;18.734;2024-01-16T10:29:29;98968.25;;;2.05;61.60
51759;BME280;66684;47.568;18.734;2024-01-16T10:31:57;98969.63;;;2.00;61.49
51759;BME280;66684;47.568;18.734;2024-01-16T10:34:23;98970.72;;;2.04;62.30
51759;BME280;66684;47.568;18.734;2024-01-16T10:36:51;98982.38;;;2.00;61.62
51759;BME280;66684;47.568;18.734;2024-01-16T10:39:18;98967.22;;;2.02;63.15
51759;BME280;66684;47.568;18.734;2024-01-16T10:41:53;98980.03;;;2.03;62.83
51759;BME280;66684;47.568;18.734;2024-01-16T10:44:20;98981.78;;;2.04;62.47
51759;BME280;66684;47.568;18.734;2024-01-16T10:46:46;98963.87;;;2.03;61.75
51759;BME280;66684;47.568;18.734;2024-01-16T10:49:11;98968.66;;;2.11;63.09
51759;BME280;66684;47.568;18.734;2024-01-16T10:51:38;98980.37;;;2.36;62.56
51759;BME280;66684;47.568;18.734;2024-01-16T10:54:12;98969.09;;;2.32;61.09
51759;BME280;66684;47.568;18.734;2024-01-16T10:56:45;98963.87;;;2.44;61.64
51759;BME280;66684;47.568;18.734;2024-01-16T10:59:34;98966.44;;;2.44;61.19
51759;BME280;66684;47.568;18.734;2024-01-16T11:02:09;98967.41;;;2.59;60.66
51759;BME280;66684;47.568;18.734;2024-01-16T11:04:36;98973.66;;;2.64;60.49
51759;BME280;66684;47.568;18.734;2024-01-16T11:07:04;98982.75;;;2.74;59.42
51759;BME280;66684;47.568;18.734;2024-01-16T11:09:31;98971.53;;;2.44;59.46
51759;BME280;66684;47.568;18.734;2024-01-16T11:11:57;98972.22;;;2.55;60.06
51759;BME280;66684;47.568;18.734;2024-01-16T11:14:25;98970.50;;;2.68;60.35
51759;BME280;66684;47.568;18.734;2024-01-16T11:16:51;98975.38;;;2.79;59.39
51759;BME280;66684;47.568;18.734;2024-01-16T11:19:19;98968.84;;;2.97;59.32
51759;BME280;66684;47.568;18.734;2024-01-16T11:21:46;98963.16;;;2.88;58.57
51759;BME280;66684;47.568;18.734;2024-01-16T11:24:13;98968.78;;;3.10;59.51
51759;BME280;66684;47.568;18.734;2024-01-16T11:26:42;98960.91;;;3.07;58.30
51759;BME280;66684;47.568;18.734;2024-01-16T11:31:54;98969.50;;;2.80;57.85
51759;BME280;66684;47.568;18.734;2024-01-16T11:37:09;98977.66;;;3.02;57.25
51759;BME280;66684;47.568;18.734;2024-01-16T11:39:36;98973.69;;;3.07;56.89
51759;BME280;66684;47.568;18.734;2024-01-16T11:42:02;98966.38;;;3.13;56.72
51759;BME280;66684;47.568;18.734;2024-01-16T11:44:49;98960.53;;;3.29;54.96
51759;BME280;66684;47.568;18.734;2024-01-16T11:47:20;98962.00;;;3.25;55.83
51759;BME280;66684;47.568;18.734;2024-01-16T11:49:47;98959.00;;;3.33;55.44
51759;BME280;66684;47.568;18.734;2024-01-16T11:52:14;98955.69;;;3.34;55.66
51759;BME280;66684;47.568;18.734;2024-01-16T11:54:40;98956.41;;;3.46;54.02
51759;BME280;66684;47.568;18.734;2024-01-16T11:59:58;98966.50;;;3.30;54.80
51759;BME280;66684;47.568;18.734;2024-01-16T12:02:32;98968.97;;;3.58;54.70
51759;BME280;66684;47.568;18.734;2024-01-16T12:04:59;98974.19;;;3.30;52.17
51759;BME280;66684;47.568;18.734;2024-01-16T12:07:29;98964.56;;;3.25;52.69
51759;BME280;66684;47.568;18.734;2024-01-16T12:10:04;98961.56;;;3.18;53.26
51759;BME280;66684;47.568;18.734;2024-01-16T12:12:32;98954.44;;;3.12;52.75
51759;BME280;66684;47.568;18.734;2024-01-16T12:14:58;98961.69;;;3.34;53.47
51759;BME280;66684;47.568;18.734;2024-01-16T12:17:24;98955.34;;;3.57;52.15
51759;BME280;66684;47.568;18.734;2024-01-16T12:19:50;98950.13;;;3.70;52.13
51759;BME280;66684;47.568;18.734;2024-01-16T12:22:16;98957.41;;;3.94;50.92
51759;BME280;66684;47.568;18.734;2024-01-16T12:24:48;98954.06;;;4.10;50.22
51759;BME280;66684;47.568;18.734;2024-01-16T12:27:14;98943.81;;;4.41;49.32
51759;BME280;66684;47.568;18.734;2024-01-16T12:29:42;98944.44;;;4.37;48.35
51759;BME280;66684;47.568;18.734;2024-01-16T12:32:09;98941.34;;;4.42;48.52
51759;BME280;66684;47.568;18.734;2024-01-16T12:34:43;98932.78;;;4.42;49.03
51759;BME280;66684;47.568;18.734;2024-01-16T12:37:11;98942.69;;;4.36;48.20
51759;BME280;66684;47.568;18.734;2024-01-16T12:39:38;98943.22;;;3.99;47.75
51759;BME280;66684;47.568;18.734;2024-01-16T12:42:04;98941.41;;;3.96;48.60
51759;BME280;66684;47.568;18.734;2024-01-16T12:44:31;98947.72;;;3.88;48.57
51759;BME280;66684;47.568;18.734;2024-01-16T12:46:57;98940.47;;;3.96;47.85
51759;BME280;66684;47.568;18.734;2024-01-16T12:49:23;98942.81;;;3.91;47.42
51759;BME280;66684;47.568;18.734;2024-01-16T12:51:50;98948.03;;;3.78;48.60
51759;BME280;66684;47.568;18.734;2024-01-16T12:54:17;98943.78;;;3.78;47.47
51759;BME280;66684;47.568;18.734;2024-01-16T12:56:44;98952.53;;;3.67;48.06
51759;BME280;66684;47.568;18.734;2024-01-16T12:59:11;98950.41;;;3.31;48.25
51759;BME280;66684;47.568;18.734;2024-01-16T13:01:43;98948.44;;;3.27;49.45